Terminal Aerodrome Forecast
Issued by NWS

Home | Current Version | Previous Version | Text Only | Print | Product List | Glossary On
Versions: 1 2 3 4 5 6 7 8 9 10 11 12
137
FTUS44 KSJT 280520
TAFBBD
TAF
KBBD 280520Z 2806/2906 VRB05KT P6SM SKC
     FM280700 12007KT P6SM OVC015
     FM281000 14008KT P6SM OVC009
     FM281600 15013G20KT P6SM OVC015
     FM281800 16015G22KT P6SM BKN030
     FM282100 17015G23KT P6SM BKN040
     FM290400 15012KT P6SM BKN020
      AMD NOT SKED=

USA.gov is the U.S. government's official web portal to all federal, state and local government web resources and services.